createdAt,value
2023-06-19T00:00:17.631Z,8.45
2023-06-19T00:02:47.549Z,11.77
2023-06-19T00:05:16.005Z,9.27
2023-06-19T00:07:45.289Z,11.45
2023-06-19T00:10:13.173Z,10.57
2023-06-19T00:12:41.182Z,10.38
2023-06-19T00:15:11.120Z,10.20
2023-06-19T00:17:39.571Z,6.80
2023-06-19T00:20:08.615Z,8.18
2023-06-19T00:22:36.426Z,7.72
2023-06-19T00:25:06.485Z,9.50
2023-06-19T00:27:34.508Z,8.35
2023-06-19T00:30:03.839Z,10.00
2023-06-19T00:32:31.705Z,7.90
2023-06-19T00:35:02.100Z,9.95
2023-06-19T00:37:33.524Z,7.57
2023-06-19T00:40:01.335Z,8.27
2023-06-19T00:42:30.658Z,13.50
2023-06-19T00:44:58.702Z,10.13
2023-06-19T00:47:26.932Z,8.88
2023-06-19T00:49:54.893Z,8.98
2023-06-19T00:52:22.807Z,8.95
2023-06-19T00:54:50.641Z,9.20
2023-06-19T00:57:18.545Z,9.65
2023-06-19T00:59:48.094Z,7.80
2023-06-19T01:02:16.087Z,8.65
2023-06-19T01:04:44.259Z,8.68
2023-06-19T01:07:14.909Z,13.10
2023-06-19T01:09:48.621Z,9.40
2023-06-19T01:12:18.882Z,10.25
2023-06-19T01:15:02.052Z,9.15
2023-06-19T01:17:30.993Z,8.13
2023-06-19T01:19:59.240Z,10.05
2023-06-19T01:22:31.919Z,9.73
2023-06-19T01:25:02.642Z,7.18
2023-06-19T01:27:32.653Z,8.85
2023-06-19T01:30:02.094Z,6.45
2023-06-19T01:32:35.248Z,6.55
2023-06-19T01:35:04.474Z,7.38
2023-06-19T01:37:35.277Z,6.13
2023-06-19T01:40:06.043Z,7.30
2023-06-19T01:42:34.860Z,5.05
2023-06-19T01:45:05.446Z,7.50
2023-06-19T01:47:33.665Z,4.93
2023-06-19T01:50:01.771Z,7.07
2023-06-19T01:52:31.039Z,6.15
2023-06-19T01:55:00.505Z,5.10
2023-06-19T01:57:28.412Z,6.03
2023-06-19T01:59:56.246Z,4.82
2023-06-19T02:02:24.375Z,5.90
2023-06-19T02:04:52.314Z,7.40
2023-06-19T02:07:20.251Z,7.07
2023-06-19T02:09:50.416Z,6.10
2023-06-19T02:12:19.864Z,5.35
2023-06-19T02:14:47.622Z,4.80
2023-06-19T02:17:15.797Z,4.38
2023-06-19T02:19:43.861Z,6.20
2023-06-19T02:22:12.292Z,4.50
2023-06-19T02:24:40.446Z,4.97
2023-06-19T02:27:08.927Z,4.72
2023-06-19T02:29:38.260Z,5.47
2023-06-19T02:32:07.208Z,5.45
2023-06-19T02:34:35.935Z,4.05
2023-06-19T02:37:07.392Z,3.42
2023-06-19T02:39:37.970Z,3.30
2023-06-19T02:42:07.477Z,4.75
2023-06-19T02:44:35.464Z,4.00
2023-06-19T02:47:05.793Z,3.97
2023-06-19T02:49:33.741Z,3.55
2023-06-19T02:52:01.716Z,5.47
2023-06-19T02:54:29.861Z,3.53
2023-06-19T02:56:57.668Z,7.43
2023-06-19T02:59:25.542Z,3.40
2023-06-19T03:01:53.730Z,3.58
2023-06-19T03:04:24.583Z,5.22
2023-06-19T03:06:55.820Z,3.47
2023-06-19T03:09:23.552Z,5.65
2023-06-19T03:11:51.878Z,5.43
2023-06-19T03:14:20.402Z,3.83
2023-06-19T03:16:48.797Z,3.15
2023-06-19T03:19:17.069Z,3.92
2023-06-19T03:21:46.336Z,4.40
2023-06-19T03:24:15.063Z,3.67
2023-06-19T03:26:43.798Z,3.75
2023-06-19T03:29:11.807Z,6.63
2023-06-19T03:31:52.721Z,6.60
2023-06-19T03:34:22.697Z,3.25
2023-06-19T03:36:53.275Z,7.25
2023-06-19T03:39:23.669Z,3.53
2023-06-19T03:41:52.037Z,3.38
2023-06-19T03:44:20.139Z,6.88
2023-06-19T03:46:48.450Z,5.82
2023-06-19T03:49:16.447Z,4.00
2023-06-19T03:51:46.263Z,5.30
2023-06-19T03:54:15.554Z,3.55
2023-06-19T03:56:43.408Z,4.10
2023-06-19T03:59:12.155Z,4.45
2023-06-19T04:01:39.904Z,5.50
2023-06-19T04:04:07.871Z,4.32
2023-06-19T04:06:36.152Z,4.13
2023-06-19T04:09:05.843Z,4.40
2023-06-19T04:11:35.365Z,7.65
2023-06-19T04:14:04.033Z,6.38
2023-06-19T04:16:32.038Z,5.50
2023-06-19T04:18:59.874Z,4.72
2023-06-19T04:21:28.284Z,8.55
2023-06-19T04:23:56.489Z,10.82
2023-06-19T04:26:25.756Z,7.10
2023-06-19T04:28:54.853Z,4.70
2023-06-19T04:31:22.989Z,6.00
2023-06-19T04:33:50.772Z,6.43
2023-06-19T04:36:19.052Z,6.53
2023-06-19T04:38:47.450Z,11.88
2023-06-19T04:41:15.242Z,17.88
2023-06-19T04:43:43.612Z,10.65
2023-06-19T04:46:12.858Z,10.13
2023-06-19T04:48:41.481Z,7.03
2023-06-19T04:51:09.368Z,6.75
2023-06-19T04:53:38.193Z,6.40
2023-06-19T04:56:06.420Z,7.57
2023-06-19T04:58:34.248Z,9.95
2023-06-19T05:01:02.108Z,11.40
2023-06-19T05:03:31.508Z,8.77
2023-06-19T05:05:59.525Z,11.27
2023-06-19T05:08:27.322Z,13.32
2023-06-19T05:10:55.968Z,14.77
2023-06-19T05:13:23.915Z,10.07
2023-06-19T05:15:52.220Z,14.57
2023-06-19T05:18:21.424Z,15.40
2023-06-19T05:20:51.189Z,14.93
2023-06-19T05:23:18.999Z,12.73
2023-06-19T05:25:47.070Z,10.75
2023-06-19T05:28:15.053Z,9.88
2023-06-19T05:30:42.997Z,12.15
2023-06-19T05:33:11.167Z,14.30
2023-06-19T05:35:39.061Z,11.02
2023-06-19T05:38:08.625Z,14.27
2023-06-19T05:40:36.523Z,21.48
2023-06-19T05:43:04.396Z,11.90
2023-06-19T05:45:32.568Z,14.45
2023-06-19T05:48:00.475Z,13.07
2023-06-19T05:50:28.501Z,14.70
2023-06-19T05:52:56.511Z,12.27
2023-06-19T05:55:26.413Z,16.15
2023-06-19T05:57:54.390Z,11.10
2023-06-19T06:00:24.163Z,14.10
2023-06-19T06:02:53.004Z,13.60
2023-06-19T06:05:21.709Z,10.45
2023-06-19T06:07:50.080Z,15.93
2023-06-19T06:10:18.463Z,13.95
2023-06-19T06:12:47.587Z,8.45
2023-06-19T06:15:15.764Z,10.15
2023-06-19T06:17:43.778Z,11.88
2023-06-19T06:20:20.713Z,9.50
2023-06-19T06:22:49.112Z,9.93
2023-06-19T06:25:17.004Z,9.43
2023-06-19T06:27:45.389Z,10.00
2023-06-19T06:30:16.673Z,10.82
2023-06-19T06:32:45.702Z,9.90
2023-06-19T06:35:14.030Z,7.30
2023-06-19T06:37:41.939Z,7.65
2023-06-19T06:40:12.231Z,9.02
2023-06-19T06:42:40.646Z,7.22
2023-06-19T06:45:09.288Z,10.60
2023-06-19T06:47:38.701Z,11.25
2023-06-19T06:50:07.792Z,7.15
2023-06-19T06:52:35.622Z,10.48
2023-06-19T06:55:03.578Z,12.73
2023-06-19T06:57:31.432Z,8.02
2023-06-19T06:59:59.290Z,8.77
2023-06-19T07:02:27.327Z,7.55
2023-06-19T07:04:57.476Z,8.57
2023-06-19T07:07:25.241Z,9.38
2023-06-19T07:09:53.367Z,12.35
2023-06-19T07:12:21.353Z,9.65
2023-06-19T07:14:49.409Z,8.48
2023-06-19T07:17:19.064Z,8.98
2023-06-19T07:19:49.023Z,9.43
2023-06-19T07:22:18.356Z,10.20
2023-06-19T07:24:46.239Z,13.25
2023-06-19T07:27:14.288Z,18.45
2023-06-19T07:29:42.134Z,11.88
2023-06-19T07:32:10.640Z,13.10
2023-06-19T07:34:38.734Z,12.35
2023-06-19T07:37:07.080Z,13.40
2023-06-19T07:39:36.506Z,10.45
2023-06-19T07:42:04.739Z,12.25
2023-06-19T07:44:32.561Z,16.33
2023-06-19T07:47:00.530Z,15.48
2023-06-19T07:49:28.565Z,18.65
2023-06-19T07:51:56.760Z,17.92
2023-06-19T07:54:24.528Z,15.10
2023-06-19T07:56:54.044Z,14.98
2023-06-19T07:59:22.240Z,17.70
2023-06-19T08:01:50.535Z,18.05
2023-06-19T08:04:18.312Z,22.25
2023-06-19T08:06:46.396Z,16.58
2023-06-19T08:09:14.860Z,20.50
2023-06-19T08:11:42.723Z,14.90
2023-06-19T08:14:12.138Z,18.55
2023-06-19T08:16:40.047Z,18.10
2023-06-19T08:19:07.929Z,18.77
2023-06-19T08:21:36.020Z,15.85
2023-06-19T08:24:04.111Z,15.57
2023-06-19T08:26:32.298Z,17.15
2023-06-19T08:29:00.361Z,16.83
2023-06-19T08:31:29.911Z,16.02
2023-06-19T08:33:57.940Z,16.80
2023-06-19T08:36:26.121Z,14.68
2023-06-19T08:38:54.028Z,14.38
2023-06-19T08:41:22.135Z,16.70
2023-06-19T08:43:50.252Z,13.38
2023-06-19T08:46:19.643Z,16.50
2023-06-19T08:48:52.534Z,16.17
2023-06-19T08:51:20.510Z,15.95
2023-06-19T08:53:51.585Z,19.15
2023-06-19T08:56:19.641Z,23.98
2023-06-19T08:58:47.797Z,17.02
2023-06-19T09:01:19.401Z,18.50
2023-06-19T09:03:47.851Z,20.33
2023-06-19T09:06:18.397Z,15.13
2023-06-19T09:08:46.590Z,15.02
2023-06-19T09:11:14.493Z,16.08
2023-06-19T09:13:42.354Z,17.65
2023-06-19T09:16:10.928Z,21.15
2023-06-19T09:18:45.623Z,18.92
2023-06-19T09:21:20.279Z,21.90
2023-06-19T09:23:48.597Z,19.00
2023-06-19T09:26:20.970Z,23.23
2023-06-19T09:28:51.437Z,20.20
2023-06-19T09:31:19.502Z,23.60
2023-06-19T09:33:47.521Z,17.25
2023-06-19T09:36:15.663Z,17.90
2023-06-19T09:38:44.894Z,17.77
2023-06-19T09:41:14.616Z,19.98
2023-06-19T09:43:45.832Z,18.17
2023-06-19T09:46:17.236Z,21.58
2023-06-19T09:48:47.290Z,16.48
2023-06-19T09:51:20.341Z,19.48
2023-06-19T09:53:52.018Z,15.95
2023-06-19T09:56:23.767Z,17.65
2023-06-19T09:58:52.972Z,17.58
2023-06-19T10:01:21.204Z,19.95
2023-06-19T10:03:49.124Z,16.23
2023-06-19T10:06:18.531Z,19.50
2023-06-19T10:08:47.532Z,20.08
2023-06-19T10:11:17.203Z,20.25
2023-06-19T10:13:45.375Z,17.20
2023-06-19T10:16:22.162Z,19.80
2023-06-19T10:18:50.431Z,19.42
2023-06-19T10:21:19.161Z,17.75
2023-06-19T10:23:55.882Z,18.27
2023-06-19T10:26:32.060Z,22.60
2023-06-19T10:29:00.231Z,16.02
2023-06-19T10:31:29.855Z,21.23
2023-06-19T10:33:58.794Z,17.40
2023-06-19T10:36:27.763Z,14.63
2023-06-19T10:38:56.462Z,20.35
2023-06-19T10:41:27.217Z,17.75
2023-06-19T10:43:58.768Z,16.80
2023-06-19T10:46:31.303Z,17.45
2023-06-19T10:49:02.515Z,17.53
2023-06-19T10:51:30.840Z,13.70
2023-06-19T10:53:59.054Z,14.30
2023-06-19T10:56:28.476Z,19.63
2023-06-19T10:59:00.428Z,15.32
2023-06-19T11:01:36.663Z,15.30
2023-06-19T11:04:06.462Z,22.35
2023-06-19T11:06:37.289Z,14.60
2023-06-19T11:09:06.388Z,20.33
2023-06-19T11:11:44.977Z,16.63
2023-06-19T11:14:14.540Z,17.98
2023-06-19T11:16:43.788Z,14.70
2023-06-19T11:19:16.820Z,19.00
2023-06-19T11:21:47.908Z,16.00
2023-06-19T11:24:17.192Z,16.90
2023-06-19T11:26:51.912Z,14.32
2023-06-19T11:29:21.758Z,18.63
2023-06-19T11:31:50.504Z,19.25
2023-06-19T11:34:21.683Z,18.70
2023-06-19T11:36:52.812Z,14.70
2023-06-19T11:39:21.160Z,14.07
2023-06-19T11:41:52.716Z,12.57
2023-06-19T11:46:51.091Z,19.13
2023-06-19T11:49:20.093Z,19.88
2023-06-19T11:51:49.332Z,17.95
2023-06-19T11:54:17.579Z,17.95
2023-06-19T11:56:45.463Z,16.75
2023-06-19T11:59:15.484Z,18.52
2023-06-19T12:01:43.254Z,16.13
2023-06-19T12:04:11.356Z,15.65
2023-06-19T12:06:39.386Z,15.85
2023-06-19T12:09:07.597Z,15.90
2023-06-19T12:11:35.579Z,14.88
2023-06-19T12:14:03.650Z,18.60
2023-06-19T12:16:33.071Z,14.25
2023-06-19T12:19:00.907Z,15.20
2023-06-19T12:21:36.365Z,16.80
2023-06-19T12:24:07.327Z,11.88
2023-06-19T12:26:37.976Z,12.10
2023-06-19T12:29:06.710Z,13.40
2023-06-19T12:31:37.255Z,14.43
2023-06-19T12:34:17.016Z,14.15
2023-06-19T12:36:53.544Z,10.90
2023-06-19T12:39:21.536Z,12.10
2023-06-19T12:41:49.416Z,12.50
2023-06-19T12:44:17.926Z,12.75
2023-06-19T12:46:47.258Z,15.55
2023-06-19T12:49:15.306Z,10.77
2023-06-19T12:51:43.490Z,11.70
2023-06-19T12:54:11.428Z,13.05
2023-06-19T12:56:39.244Z,14.95
2023-06-19T12:59:07.302Z,13.30
2023-06-19T13:01:35.296Z,14.52
2023-06-19T13:04:04.868Z,14.77
2023-06-19T13:06:33.424Z,10.27
2023-06-19T13:09:03.254Z,10.85
2023-06-19T13:11:32.499Z,20.08
2023-06-19T13:14:00.547Z,10.23
2023-06-19T13:16:44.600Z,18.40
2023-06-19T13:19:15.588Z,11.98
2023-06-19T13:21:43.941Z,10.23
2023-06-19T13:24:12.307Z,12.90
2023-06-19T13:26:40.387Z,9.90
2023-06-19T13:29:08.195Z,14.02
2023-06-19T13:31:36.122Z,11.13
2023-06-19T13:34:04.091Z,12.90
2023-06-19T13:36:33.526Z,11.80
2023-06-19T13:39:01.367Z,12.98
2023-06-19T13:41:32.127Z,19.75
2023-06-19T13:44:00.184Z,23.08
2023-06-19T13:46:28.071Z,21.60
2023-06-19T13:48:56.327Z,17.58
2023-06-19T13:51:24.885Z,11.73
2023-06-19T13:53:55.666Z,13.52
2023-06-19T13:56:24.710Z,25.63
2023-06-19T13:58:53.038Z,16.98
2023-06-19T14:01:21.294Z,9.77
2023-06-19T14:03:49.240Z,11.68
2023-06-19T14:06:17.210Z,18.00
2023-06-19T14:08:45.260Z,20.83
2023-06-19T14:11:14.794Z,10.35
2023-06-19T14:13:42.684Z,14.32
2023-06-19T14:16:10.740Z,8.75
2023-06-19T14:18:38.922Z,12.55
2023-06-19T14:21:06.789Z,10.18
2023-06-19T14:23:35.419Z,10.13
2023-06-19T14:26:03.373Z,10.10
2023-06-19T14:28:32.707Z,8.00
2023-06-19T14:31:00.692Z,13.48
2023-06-19T14:33:28.564Z,52.65
2023-06-19T14:35:56.552Z,18.73
2023-06-19T14:38:26.519Z,22.90
2023-06-19T14:40:54.473Z,32.25
2023-06-19T14:43:22.505Z,16.20
2023-06-19T14:45:51.786Z,24.50
2023-06-19T14:48:19.604Z,14.38
2023-06-19T14:50:47.415Z,7.78
2023-06-19T14:53:15.305Z,10.13
2023-06-19T14:55:46.927Z,8.45
2023-06-19T14:58:15.280Z,11.77
2023-06-19T15:00:43.725Z,8.35
2023-06-19T15:03:13.463Z,12.25
2023-06-19T15:05:41.334Z,10.27
2023-06-19T15:08:11.130Z,14.82
2023-06-19T15:10:39.475Z,8.95
2023-06-19T15:13:07.335Z,9.60
2023-06-19T15:15:35.232Z,6.60
2023-06-19T15:18:03.568Z,8.55
2023-06-19T15:20:32.820Z,9.93
2023-06-19T15:23:00.600Z,6.53
2023-06-19T15:25:28.780Z,8.48
2023-06-19T15:27:56.595Z,8.45
2023-06-19T15:30:25.572Z,10.77
2023-06-19T15:32:53.871Z,11.20
2023-06-19T15:35:21.780Z,10.23
2023-06-19T15:37:50.915Z,8.40
2023-06-19T15:40:18.797Z,13.18
2023-06-19T15:42:46.771Z,10.52
2023-06-19T15:45:15.589Z,7.68
2023-06-19T15:47:43.515Z,8.98
2023-06-19T15:50:11.798Z,7.72
2023-06-19T15:52:40.040Z,7.50
2023-06-19T15:55:09.871Z,10.30
2023-06-19T15:57:37.919Z,8.50
2023-06-19T16:00:06.882Z,9.25
2023-06-19T16:02:41.541Z,9.23
2023-06-19T16:05:09.725Z,9.45
2023-06-19T16:07:37.639Z,7.63
2023-06-19T16:10:06.141Z,11.93
2023-06-19T16:12:36.069Z,7.80
2023-06-19T16:15:04.028Z,8.75
2023-06-19T16:17:32.717Z,8.88
2023-06-19T16:20:00.871Z,11.27
2023-06-19T16:22:28.784Z,7.70
2023-06-19T16:24:56.769Z,12.07
2023-06-19T16:27:24.734Z,15.10
2023-06-19T16:29:53.921Z,43.63
2023-06-19T16:32:21.973Z,16.30
2023-06-19T16:34:50.178Z,16.20
2023-06-19T16:37:18.152Z,30.80
2023-06-19T16:39:46.206Z,10.60
2023-06-19T16:42:16.579Z,7.80
2023-06-19T16:44:44.504Z,7.07
2023-06-19T16:47:13.801Z,7.35
2023-06-19T16:49:41.830Z,9.20
2023-06-19T16:52:10.005Z,8.93
2023-06-19T16:54:37.975Z,13.93
2023-06-19T16:57:06.160Z,9.32
2023-06-19T16:59:34.019Z,9.43
2023-06-19T17:02:01.804Z,11.27
2023-06-19T17:04:31.389Z,15.77
2023-06-19T17:07:00.489Z,7.60
2023-06-19T17:09:28.360Z,10.43
2023-06-19T17:11:56.311Z,7.30
2023-06-19T17:14:24.306Z,8.60
2023-06-19T17:16:53.018Z,8.98
2023-06-19T17:19:20.757Z,8.15
2023-06-19T17:21:50.053Z,9.40
2023-06-19T17:24:18.893Z,8.68
2023-06-19T17:26:47.155Z,9.85
2023-06-19T17:29:15.294Z,15.43
2023-06-19T17:31:43.022Z,7.82
2023-06-19T17:34:10.894Z,10.48
2023-06-19T17:36:38.769Z,9.27
2023-06-19T17:39:08.076Z,11.23
2023-06-19T17:41:37.666Z,10.10
2023-06-19T17:44:06.100Z,41.70
2023-06-19T17:46:34.086Z,15.27
2023-06-19T17:49:02.055Z,11.93
2023-06-19T17:51:29.849Z,10.13
2023-06-19T17:53:58.000Z,8.88
2023-06-19T17:56:27.248Z,8.68
2023-06-19T17:58:55.175Z,8.93
2023-06-19T18:01:24.828Z,11.93
2023-06-19T18:03:53.621Z,9.65
2023-06-19T18:06:21.924Z,6.97
2023-06-19T18:08:49.954Z,6.80
2023-06-19T18:11:17.828Z,8.27
2023-06-19T18:13:47.131Z,11.25
2023-06-19T18:16:15.124Z,9.38
2023-06-19T18:18:42.972Z,9.43
2023-06-19T18:21:10.982Z,12.55
2023-06-19T18:23:39.275Z,8.82
2023-06-19T18:26:07.205Z,10.70
2023-06-19T18:28:35.096Z,13.38
2023-06-19T18:31:04.362Z,13.00
2023-06-19T18:33:32.391Z,8.85
2023-06-19T18:36:00.392Z,8.55
2023-06-19T18:38:28.400Z,10.68
2023-06-19T18:40:56.308Z,11.45
2023-06-19T18:43:24.239Z,12.55
2023-06-19T18:45:52.071Z,11.23
2023-06-19T18:48:21.623Z,8.32
2023-06-19T18:50:49.806Z,11.07
2023-06-19T18:53:17.878Z,8.68
2023-06-19T18:55:45.876Z,14.05
2023-06-19T18:58:13.824Z,9.27
2023-06-19T19:00:43.005Z,9.73
2023-06-19T19:03:11.086Z,9.25
2023-06-19T19:05:40.458Z,12.57
2023-06-19T19:08:08.734Z,7.03
2023-06-19T19:10:36.911Z,8.18
2023-06-19T19:13:04.694Z,15.23
2023-06-19T19:15:32.626Z,10.48
2023-06-19T19:18:00.550Z,13.20
2023-06-19T19:20:28.772Z,10.43
2023-06-19T19:22:58.243Z,12.32
2023-06-19T19:25:26.186Z,12.75
2023-06-19T19:27:54.031Z,12.60
2023-06-19T19:30:22.397Z,13.20
2023-06-19T19:32:50.548Z,12.85
2023-06-19T19:35:18.663Z,17.67
2023-06-19T19:37:46.820Z,19.25
2023-06-19T19:40:16.096Z,18.63
2023-06-19T19:42:43.871Z,17.65
2023-06-19T19:45:12.613Z,18.25
2023-06-19T19:47:40.491Z,24.02
2023-06-19T19:50:09.385Z,14.43
2023-06-19T19:52:37.317Z,18.10
2023-06-19T19:55:05.518Z,16.05
2023-06-19T19:57:34.836Z,20.77
2023-06-19T20:00:03.631Z,16.70
2023-06-19T20:02:34.523Z,11.32
2023-06-19T20:05:02.520Z,11.52
2023-06-19T20:07:30.465Z,13.90
2023-06-19T20:09:59.160Z,13.43
2023-06-19T20:12:27.108Z,19.10
2023-06-19T20:14:57.380Z,14.98
2023-06-19T20:17:25.251Z,15.20
2023-06-19T20:19:53.303Z,10.68
2023-06-19T20:22:21.076Z,16.60
2023-06-19T20:24:49.156Z,10.95
2023-06-19T20:27:17.879Z,11.88
2023-06-19T20:29:45.960Z,13.88
2023-06-19T20:32:15.111Z,17.80
2023-06-19T20:34:43.092Z,10.52
2023-06-19T20:37:11.039Z,10.32
2023-06-19T20:39:38.930Z,15.07
2023-06-19T20:42:07.274Z,12.38
2023-06-19T20:44:36.182Z,8.48
2023-06-19T20:47:04.373Z,8.45
2023-06-19T20:49:33.773Z,12.98
2023-06-19T20:52:01.699Z,10.55
2023-06-19T20:54:29.754Z,9.27
2023-06-19T20:56:57.713Z,12.48
2023-06-19T20:59:25.528Z,11.70
2023-06-19T21:02:01.031Z,8.18
2023-06-19T21:04:29.454Z,11.60
2023-06-19T21:06:59.379Z,9.65
2023-06-19T21:09:27.937Z,13.70
2023-06-19T21:11:56.087Z,7.63
2023-06-19T21:14:24.474Z,8.27
2023-06-19T21:16:52.431Z,11.32
2023-06-19T21:19:20.622Z,10.32
2023-06-19T21:21:48.511Z,13.00
2023-06-19T21:24:17.780Z,7.45
2023-06-19T21:26:45.719Z,12.18
2023-06-19T21:29:14.077Z,11.40
2023-06-19T21:31:43.776Z,9.57
2023-06-19T21:34:11.703Z,9.73
2023-06-19T21:36:39.504Z,8.73
2023-06-19T21:39:07.393Z,10.10
2023-06-19T21:41:38.028Z,10.55
2023-06-19T21:44:06.288Z,15.45
2023-06-19T21:46:34.564Z,10.25
2023-06-19T21:49:05.135Z,20.90
2023-06-19T21:51:34.892Z,11.45
2023-06-19T21:54:03.045Z,13.98
2023-06-19T21:56:31.023Z,9.32
2023-06-19T21:59:00.240Z,10.02
2023-06-19T22:01:28.445Z,11.82
2023-06-19T22:03:56.751Z,12.52
2023-06-19T22:06:24.672Z,10.73
2023-06-19T22:08:52.688Z,11.10
2023-06-19T22:11:20.812Z,11.10
2023-06-19T22:13:48.823Z,10.93
2023-06-19T22:16:18.044Z,10.60
2023-06-19T22:18:46.282Z,8.20
2023-06-19T22:21:14.086Z,10.38
2023-06-19T22:23:42.636Z,9.05
2023-06-19T22:26:10.773Z,8.75
2023-06-19T22:28:38.568Z,9.35
2023-06-19T22:31:07.532Z,10.93
2023-06-19T22:33:37.368Z,13.40
2023-06-19T22:36:05.500Z,10.15
2023-06-19T22:38:33.449Z,11.23
2023-06-19T22:41:01.510Z,10.43
2023-06-19T22:43:29.326Z,7.68
2023-06-19T22:45:57.296Z,9.20
2023-06-19T22:48:27.758Z,10.90
2023-06-19T22:50:59.161Z,8.27
2023-06-19T22:53:27.104Z,11.40
2023-06-19T22:55:54.989Z,11.88
2023-06-19T22:58:23.100Z,10.40
2023-06-19T23:00:51.009Z,9.63
2023-06-19T23:03:20.961Z,7.60
2023-06-19T23:05:48.884Z,7.18
2023-06-19T23:08:18.167Z,11.13
2023-06-19T23:10:46.186Z,10.63
2023-06-19T23:13:14.470Z,10.07
2023-06-19T23:15:42.381Z,9.35
2023-06-19T23:18:10.522Z,10.82
2023-06-19T23:20:38.609Z,7.25
2023-06-19T23:23:06.985Z,12.20
2023-06-19T23:25:36.438Z,12.55
2023-06-19T23:28:04.772Z,16.05
2023-06-19T23:30:32.678Z,13.32
2023-06-19T23:33:00.656Z,14.32
2023-06-19T23:35:28.436Z,11.80
2023-06-19T23:37:57.555Z,19.00
2023-06-19T23:40:25.604Z,12.27
2023-06-19T23:42:54.837Z,12.25
2023-06-19T23:45:23.328Z,10.63
2023-06-19T23:47:51.392Z,9.38
2023-06-19T23:50:19.348Z,10.43
2023-06-19T23:52:47.449Z,13.63
2023-06-19T23:55:15.355Z,7.65
2023-06-19T23:57:43.200Z,7.70
